sensor_id;sensor_type;location;lat;lon;timestamp;P1;durP1;ratioP1;P2;durP2;ratioP2
53072;SDS011;38955;48.916;2.336;2024-03-08T00:00:27;4.35;;;2.53;;
53072;SDS011;38955;48.916;2.336;2024-03-08T00:02:29;8.77;;;3.28;;
53072;SDS011;38955;48.916;2.336;2024-03-08T00:04:32;4.25;;;1.92;;
53072;SDS011;38955;48.916;2.336;2024-03-08T00:06:35;5.38;;;3.42;;
53072;SDS011;38955;48.916;2.336;2024-03-08T00:08:37;5.03;;;2.90;;
53072;SDS011;38955;48.916;2.336;2024-03-08T00:10:39;4.50;;;2.67;;
53072;SDS011;38955;48.916;2.336;2024-03-08T00:12:42;6.20;;;3.08;;
53072;SDS011;38955;48.916;2.336;2024-03-08T00:14:44;4.72;;;3.90;;
53072;SDS011;38955;48.916;2.336;2024-03-08T00:16:47;3.13;;;1.98;;
53072;SDS011;38955;48.916;2.336;2024-03-08T00:18:49;7.80;;;3.42;;
53072;SDS011;38955;48.916;2.336;2024-03-08T00:20:53;4.75;;;3.22;;
53072;SDS011;38955;48.916;2.336;2024-03-08T00:22:55;6.35;;;3.40;;
53072;SDS011;38955;48.916;2.336;2024-03-08T00:24:59;3.97;;;3.13;;
53072;SDS011;38955;48.916;2.336;2024-03-08T00:27:01;5.07;;;3.05;;
53072;SDS011;38955;48.916;2.336;2024-03-08T00:29:03;6.60;;;3.53;;
53072;SDS011;38955;48.916;2.336;2024-03-08T00:31:05;6.00;;;3.25;;
53072;SDS011;38955;48.916;2.336;2024-03-08T00:33:08;6.38;;;4.43;;
53072;SDS011;38955;48.916;2.336;2024-03-08T00:35:10;5.78;;;3.55;;
53072;SDS011;38955;48.916;2.336;2024-03-08T00:37:15;5.10;;;2.70;;
53072;SDS011;38955;48.916;2.336;2024-03-08T00:39:17;3.45;;;2.30;;
53072;SDS011;38955;48.916;2.336;2024-03-08T00:41:21;4.35;;;3.25;;
53072;SDS011;38955;48.916;2.336;2024-03-08T00:43:23;6.40;;;2.95;;
53072;SDS011;38955;48.916;2.336;2024-03-08T00:45:25;7.68;;;3.70;;
53072;SDS011;38955;48.916;2.336;2024-03-08T00:47:27;5.18;;;3.63;;
53072;SDS011;38955;48.916;2.336;2024-03-08T00:49:29;5.43;;;3.08;;
53072;SDS011;38955;48.916;2.336;2024-03-08T00:51:32;12.23;;;3.40;;
53072;SDS011;38955;48.916;2.336;2024-03-08T00:53:35;5.50;;;2.88;;
53072;SDS011;38955;48.916;2.336;2024-03-08T00:55:37;5.75;;;3.55;;
53072;SDS011;38955;48.916;2.336;2024-03-08T00:57:40;4.60;;;3.20;;
53072;SDS011;38955;48.916;2.336;2024-03-08T00:59:42;9.63;;;4.72;;
53072;SDS011;38955;48.916;2.336;2024-03-08T01:01:45;9.80;;;4.30;;
53072;SDS011;38955;48.916;2.336;2024-03-08T01:03:47;6.80;;;2.97;;
53072;SDS011;38955;48.916;2.336;2024-03-08T01:05:50;6.88;;;3.35;;
53072;SDS011;38955;48.916;2.336;2024-03-08T01:07:53;8.10;;;3.88;;
53072;SDS011;38955;48.916;2.336;2024-03-08T01:09:56;6.45;;;2.92;;
53072;SDS011;38955;48.916;2.336;2024-03-08T01:11:58;6.47;;;2.20;;
53072;SDS011;38955;48.916;2.336;2024-03-08T01:14:01;14.07;;;4.22;;
53072;SDS011;38955;48.916;2.336;2024-03-08T01:16:03;6.50;;;4.32;;
53072;SDS011;38955;48.916;2.336;2024-03-08T01:18:06;7.28;;;3.72;;
53072;SDS011;38955;48.916;2.336;2024-03-08T01:20:08;9.05;;;4.95;;
53072;SDS011;38955;48.916;2.336;2024-03-08T01:24:15;5.43;;;3.53;;
53072;SDS011;38955;48.916;2.336;2024-03-08T01:26:19;4.25;;;3.80;;
53072;SDS011;38955;48.916;2.336;2024-03-08T01:28:21;4.82;;;2.85;;
53072;SDS011;38955;48.916;2.336;2024-03-08T01:30:23;8.90;;;4.20;;
53072;SDS011;38955;48.916;2.336;2024-03-08T01:32:25;5.38;;;4.03;;
53072;SDS011;38955;48.916;2.336;2024-03-08T01:34:27;5.07;;;3.13;;
53072;SDS011;38955;48.916;2.336;2024-03-08T01:36:30;7.22;;;4.00;;
53072;SDS011;38955;48.916;2.336;2024-03-08T01:38:32;4.30;;;3.53;;
53072;SDS011;38955;48.916;2.336;2024-03-08T01:40:35;8.57;;;4.75;;
53072;SDS011;38955;48.916;2.336;2024-03-08T01:42:39;6.03;;;3.83;;
53072;SDS011;38955;48.916;2.336;2024-03-08T01:44:41;9.80;;;5.90;;
53072;SDS011;38955;48.916;2.336;2024-03-08T01:46:44;11.55;;;6.68;;
53072;SDS011;38955;48.916;2.336;2024-03-08T01:48:47;10.00;;;3.75;;
53072;SDS011;38955;48.916;2.336;2024-03-08T01:50:52;4.18;;;3.53;;
53072;SDS011;38955;48.916;2.336;2024-03-08T01:52:56;6.88;;;4.13;;
53072;SDS011;38955;48.916;2.336;2024-03-08T01:55:01;8.75;;;3.72;;
53072;SDS011;38955;48.916;2.336;2024-03-08T01:57:09;6.70;;;4.88;;
53072;SDS011;38955;48.916;2.336;2024-03-08T01:59:15;8.93;;;4.13;;
53072;SDS011;38955;48.916;2.336;2024-03-08T02:01:18;7.97;;;3.65;;
53072;SDS011;38955;48.916;2.336;2024-03-08T02:03:21;5.32;;;4.38;;
53072;SDS011;38955;48.916;2.336;2024-03-08T02:05:23;8.93;;;4.20;;
53072;SDS011;38955;48.916;2.336;2024-03-08T02:07:27;4.53;;;4.03;;
53072;SDS011;38955;48.916;2.336;2024-03-08T02:09:29;11.85;;;4.63;;
53072;SDS011;38955;48.916;2.336;2024-03-08T02:11:31;6.47;;;3.88;;
53072;SDS011;38955;48.916;2.336;2024-03-08T02:13:34;8.43;;;5.03;;
53072;SDS011;38955;48.916;2.336;2024-03-08T02:15:53;10.93;;;4.75;;
53072;SDS011;38955;48.916;2.336;2024-03-08T02:17:55;6.78;;;4.18;;
53072;SDS011;38955;48.916;2.336;2024-03-08T02:19:57;9.10;;;4.38;;
53072;SDS011;38955;48.916;2.336;2024-03-08T02:24:07;9.07;;;4.65;;
53072;SDS011;38955;48.916;2.336;2024-03-08T02:26:09;10.75;;;5.72;;
53072;SDS011;38955;48.916;2.336;2024-03-08T02:28:12;11.75;;;6.18;;
53072;SDS011;38955;48.916;2.336;2024-03-08T02:30:15;10.40;;;5.13;;
53072;SDS011;38955;48.916;2.336;2024-03-08T02:32:19;7.97;;;5.93;;
53072;SDS011;38955;48.916;2.336;2024-03-08T02:34:21;4.15;;;3.47;;
53072;SDS011;38955;48.916;2.336;2024-03-08T02:36:23;6.05;;;3.33;;
53072;SDS011;38955;48.916;2.336;2024-03-08T02:38:26;9.27;;;4.47;;
53072;SDS011;38955;48.916;2.336;2024-03-08T02:40:29;8.57;;;4.28;;
53072;SDS011;38955;48.916;2.336;2024-03-08T02:42:32;7.25;;;3.85;;
53072;SDS011;38955;48.916;2.336;2024-03-08T02:44:34;5.68;;;4.80;;
53072;SDS011;38955;48.916;2.336;2024-03-08T02:46:36;9.48;;;5.80;;
53072;SDS011;38955;48.916;2.336;2024-03-08T02:48:38;5.90;;;3.95;;
53072;SDS011;38955;48.916;2.336;2024-03-08T02:50:41;10.57;;;5.15;;
53072;SDS011;38955;48.916;2.336;2024-03-08T02:52:47;13.82;;;4.53;;
53072;SDS011;38955;48.916;2.336;2024-03-08T02:54:51;8.40;;;4.32;;
53072;SDS011;38955;48.916;2.336;2024-03-08T02:56:54;8.50;;;4.53;;
53072;SDS011;38955;48.916;2.336;2024-03-08T02:58:56;6.40;;;4.40;;
53072;SDS011;38955;48.916;2.336;2024-03-08T03:00:58;10.27;;;4.03;;
53072;SDS011;38955;48.916;2.336;2024-03-08T03:03:01;8.40;;;5.05;;
53072;SDS011;38955;48.916;2.336;2024-03-08T03:05:05;9.02;;;4.88;;
53072;SDS011;38955;48.916;2.336;2024-03-08T03:07:07;6.45;;;4.18;;
53072;SDS011;38955;48.916;2.336;2024-03-08T03:09:09;7.70;;;4.50;;
53072;SDS011;38955;48.916;2.336;2024-03-08T03:11:13;7.68;;;5.97;;
53072;SDS011;38955;48.916;2.336;2024-03-08T03:13:15;11.43;;;5.22;;
53072;SDS011;38955;48.916;2.336;2024-03-08T03:15:17;8.35;;;4.63;;
53072;SDS011;38955;48.916;2.336;2024-03-08T03:17:19;6.68;;;4.85;;
53072;SDS011;38955;48.916;2.336;2024-03-08T03:19:22;8.32;;;4.15;;
53072;SDS011;38955;48.916;2.336;2024-03-08T03:21:24;6.40;;;3.78;;
53072;SDS011;38955;48.916;2.336;2024-03-08T03:23:26;8.40;;;4.45;;
53072;SDS011;38955;48.916;2.336;2024-03-08T03:25:28;9.00;;;4.78;;
53072;SDS011;38955;48.916;2.336;2024-03-08T03:27:36;14.02;;;4.97;;
53072;SDS011;38955;48.916;2.336;2024-03-08T03:29:38;10.82;;;5.80;;
53072;SDS011;38955;48.916;2.336;2024-03-08T03:31:43;8.50;;;4.15;;
53072;SDS011;38955;48.916;2.336;2024-03-08T03:33:48;5.93;;;4.05;;
53072;SDS011;38955;48.916;2.336;2024-03-08T03:35:52;6.47;;;3.75;;
53072;SDS011;38955;48.916;2.336;2024-03-08T03:37:55;7.32;;;4.80;;
53072;SDS011;38955;48.916;2.336;2024-03-08T03:40:12;5.90;;;4.68;;
53072;SDS011;38955;48.916;2.336;2024-03-08T03:42:15;7.97;;;5.10;;
53072;SDS011;38955;48.916;2.336;2024-03-08T03:44:19;8.75;;;5.03;;
53072;SDS011;38955;48.916;2.336;2024-03-08T03:46:21;8.73;;;5.57;;
53072;SDS011;38955;48.916;2.336;2024-03-08T03:48:23;11.02;;;5.47;;
53072;SDS011;38955;48.916;2.336;2024-03-08T03:50:26;10.20;;;5.85;;
53072;SDS011;38955;48.916;2.336;2024-03-08T03:52:28;10.77;;;4.60;;
53072;SDS011;38955;48.916;2.336;2024-03-08T03:54:30;13.40;;;4.95;;
53072;SDS011;38955;48.916;2.336;2024-03-08T03:56:32;7.43;;;4.70;;
53072;SDS011;38955;48.916;2.336;2024-03-08T03:58:34;9.35;;;6.07;;
53072;SDS011;38955;48.916;2.336;2024-03-08T04:00:37;8.00;;;4.35;;
53072;SDS011;38955;48.916;2.336;2024-03-08T04:02:40;5.35;;;3.65;;
53072;SDS011;38955;48.916;2.336;2024-03-08T04:04:44;7.32;;;4.28;;
53072;SDS011;38955;48.916;2.336;2024-03-08T04:06:47;8.80;;;6.03;;
53072;SDS011;38955;48.916;2.336;2024-03-08T04:08:49;9.07;;;4.43;;
53072;SDS011;38955;48.916;2.336;2024-03-08T04:10:51;7.88;;;4.80;;
53072;SDS011;38955;48.916;2.336;2024-03-08T04:12:53;9.77;;;4.97;;
53072;SDS011;38955;48.916;2.336;2024-03-08T04:14:55;8.30;;;5.80;;
53072;SDS011;38955;48.916;2.336;2024-03-08T04:16:59;8.38;;;4.80;;
53072;SDS011;38955;48.916;2.336;2024-03-08T04:19:01;5.72;;;4.13;;
53072;SDS011;38955;48.916;2.336;2024-03-08T04:21:05;4.43;;;3.78;;
53072;SDS011;38955;48.916;2.336;2024-03-08T04:23:11;10.93;;;4.82;;
53072;SDS011;38955;48.916;2.336;2024-03-08T04:25:13;8.93;;;4.63;;
53072;SDS011;38955;48.916;2.336;2024-03-08T04:27:15;13.70;;;6.25;;
53072;SDS011;38955;48.916;2.336;2024-03-08T04:29:17;11.68;;;5.13;;
53072;SDS011;38955;48.916;2.336;2024-03-08T04:31:19;10.82;;;5.00;;
53072;SDS011;38955;48.916;2.336;2024-03-08T04:33:24;9.73;;;4.95;;
53072;SDS011;38955;48.916;2.336;2024-03-08T04:35:26;7.68;;;4.45;;
53072;SDS011;38955;48.916;2.336;2024-03-08T04:37:29;11.23;;;6.70;;
53072;SDS011;38955;48.916;2.336;2024-03-08T04:39:31;5.72;;;3.75;;
53072;SDS011;38955;48.916;2.336;2024-03-08T04:41:33;5.10;;;4.32;;
53072;SDS011;38955;48.916;2.336;2024-03-08T04:43:35;5.72;;;5.13;;
53072;SDS011;38955;48.916;2.336;2024-03-08T04:45:37;6.80;;;4.45;;
53072;SDS011;38955;48.916;2.336;2024-03-08T04:47:40;8.70;;;3.97;;
53072;SDS011;38955;48.916;2.336;2024-03-08T04:49:44;4.55;;;3.60;;
53072;SDS011;38955;48.916;2.336;2024-03-08T04:51:46;8.82;;;4.82;;
53072;SDS011;38955;48.916;2.336;2024-03-08T04:53:48;8.05;;;4.75;;
53072;SDS011;38955;48.916;2.336;2024-03-08T04:55:51;6.00;;;2.97;;
53072;SDS011;38955;48.916;2.336;2024-03-08T04:57:53;7.43;;;4.25;;
53072;SDS011;38955;48.916;2.336;2024-03-08T04:59:55;15.88;;;5.95;;
53072;SDS011;38955;48.916;2.336;2024-03-08T05:01:57;10.32;;;4.53;;
53072;SDS011;38955;48.916;2.336;2024-03-08T05:03:59;7.15;;;4.18;;
53072;SDS011;38955;48.916;2.336;2024-03-08T05:06:08;9.18;;;5.78;;
53072;SDS011;38955;48.916;2.336;2024-03-08T05:08:10;11.13;;;7.00;;
53072;SDS011;38955;48.916;2.336;2024-03-08T05:10:12;8.75;;;4.80;;
53072;SDS011;38955;48.916;2.336;2024-03-08T05:12:18;11.20;;;5.57;;
53072;SDS011;38955;48.916;2.336;2024-03-08T05:14:20;9.55;;;5.90;;
53072;SDS011;38955;48.916;2.336;2024-03-08T05:16:22;8.63;;;6.13;;
53072;SDS011;38955;48.916;2.336;2024-03-08T05:18:26;10.55;;;5.72;;
53072;SDS011;38955;48.916;2.336;2024-03-08T05:20:30;5.72;;;5.20;;
53072;SDS011;38955;48.916;2.336;2024-03-08T05:22:34;7.72;;;5.50;;
53072;SDS011;38955;48.916;2.336;2024-03-08T05:24:37;10.38;;;5.18;;
53072;SDS011;38955;48.916;2.336;2024-03-08T05:26:39;12.40;;;7.40;;
53072;SDS011;38955;48.916;2.336;2024-03-08T05:28:41;8.38;;;5.13;;
53072;SDS011;38955;48.916;2.336;2024-03-08T05:30:44;16.38;;;7.25;;
53072;SDS011;38955;48.916;2.336;2024-03-08T05:32:46;13.15;;;6.13;;
53072;SDS011;38955;48.916;2.336;2024-03-08T05:34:48;8.77;;;4.95;;
53072;SDS011;38955;48.916;2.336;2024-03-08T05:36:50;7.43;;;5.75;;
53072;SDS011;38955;48.916;2.336;2024-03-08T05:38:54;12.63;;;5.85;;
53072;SDS011;38955;48.916;2.336;2024-03-08T05:40:56;7.70;;;4.70;;
53072;SDS011;38955;48.916;2.336;2024-03-08T05:42:58;8.60;;;4.60;;
53072;SDS011;38955;48.916;2.336;2024-03-08T05:45:01;7.55;;;4.88;;
53072;SDS011;38955;48.916;2.336;2024-03-08T05:47:03;8.60;;;5.63;;
53072;SDS011;38955;48.916;2.336;2024-03-08T05:49:05;8.88;;;4.32;;
53072;SDS011;38955;48.916;2.336;2024-03-08T05:51:08;9.60;;;6.93;;
53072;SDS011;38955;48.916;2.336;2024-03-08T05:53:10;9.65;;;5.50;;
53072;SDS011;38955;48.916;2.336;2024-03-08T05:55:14;10.18;;;6.05;;
53072;SDS011;38955;48.916;2.336;2024-03-08T05:57:16;10.02;;;5.00;;
53072;SDS011;38955;48.916;2.336;2024-03-08T05:59:18;12.18;;;5.47;;
53072;SDS011;38955;48.916;2.336;2024-03-08T06:01:20;13.27;;;5.95;;
53072;SDS011;38955;48.916;2.336;2024-03-08T06:03:23;7.88;;;5.28;;
53072;SDS011;38955;48.916;2.336;2024-03-08T06:05:26;6.82;;;4.28;;
53072;SDS011;38955;48.916;2.336;2024-03-08T06:07:28;12.15;;;5.45;;
53072;SDS011;38955;48.916;2.336;2024-03-08T06:09:31;7.55;;;4.07;;
53072;SDS011;38955;48.916;2.336;2024-03-08T06:11:35;9.75;;;5.20;;
53072;SDS011;38955;48.916;2.336;2024-03-08T06:13:39;7.65;;;3.72;;
53072;SDS011;38955;48.916;2.336;2024-03-08T06:15:41;7.60;;;5.50;;
53072;SDS011;38955;48.916;2.336;2024-03-08T06:17:43;11.30;;;5.65;;
53072;SDS011;38955;48.916;2.336;2024-03-08T06:19:45;9.45;;;5.88;;
53072;SDS011;38955;48.916;2.336;2024-03-08T06:21:48;13.45;;;6.32;;
53072;SDS011;38955;48.916;2.336;2024-03-08T06:23:50;8.60;;;4.63;;
53072;SDS011;38955;48.916;2.336;2024-03-08T06:25:52;13.43;;;6.13;;
53072;SDS011;38955;48.916;2.336;2024-03-08T06:27:56;13.23;;;4.30;;
53072;SDS011;38955;48.916;2.336;2024-03-08T06:29:58;12.77;;;6.60;;
53072;SDS011;38955;48.916;2.336;2024-03-08T06:32:00;14.57;;;4.70;;
53072;SDS011;38955;48.916;2.336;2024-03-08T06:34:03;7.68;;;4.80;;
53072;SDS011;38955;48.916;2.336;2024-03-08T06:36:05;8.07;;;4.50;;
53072;SDS011;38955;48.916;2.336;2024-03-08T06:38:07;13.48;;;6.65;;
53072;SDS011;38955;48.916;2.336;2024-03-08T06:40:10;7.70;;;4.95;;
53072;SDS011;38955;48.916;2.336;2024-03-08T06:42:15;13.00;;;5.15;;
53072;SDS011;38955;48.916;2.336;2024-03-08T06:44:19;10.23;;;5.50;;
53072;SDS011;38955;48.916;2.336;2024-03-08T06:46:23;7.70;;;5.32;;
53072;SDS011;38955;48.916;2.336;2024-03-08T06:48:25;12.93;;;6.00;;
53072;SDS011;38955;48.916;2.336;2024-03-08T06:50:27;7.13;;;4.40;;
53072;SDS011;38955;48.916;2.336;2024-03-08T06:52:29;9.38;;;4.43;;
53072;SDS011;38955;48.916;2.336;2024-03-08T06:54:32;10.02;;;4.82;;
53072;SDS011;38955;48.916;2.336;2024-03-08T06:56:34;17.92;;;6.78;;
53072;SDS011;38955;48.916;2.336;2024-03-08T06:58:36;7.82;;;4.88;;
53072;SDS011;38955;48.916;2.336;2024-03-08T07:00:40;12.38;;;6.75;;
53072;SDS011;38955;48.916;2.336;2024-03-08T07:02:43;10.90;;;4.72;;
53072;SDS011;38955;48.916;2.336;2024-03-08T07:04:47;8.67;;;5.50;;
53072;SDS011;38955;48.916;2.336;2024-03-08T07:06:51;7.78;;;5.45;;
53072;SDS011;38955;48.916;2.336;2024-03-08T07:08:54;10.93;;;6.47;;
53072;SDS011;38955;48.916;2.336;2024-03-08T07:10:56;10.20;;;4.22;;
53072;SDS011;38955;48.916;2.336;2024-03-08T07:13:00;10.18;;;5.03;;
53072;SDS011;38955;48.916;2.336;2024-03-08T07:15:05;4.65;;;4.15;;
53072;SDS011;38955;48.916;2.336;2024-03-08T07:17:09;11.55;;;5.20;;
53072;SDS011;38955;48.916;2.336;2024-03-08T07:19:13;9.02;;;6.50;;
53072;SDS011;38955;48.916;2.336;2024-03-08T07:21:15;11.68;;;6.93;;
53072;SDS011;38955;48.916;2.336;2024-03-08T07:23:18;7.55;;;5.22;;
53072;SDS011;38955;48.916;2.336;2024-03-08T07:25:39;6.95;;;5.53;;
53072;SDS011;38955;48.916;2.336;2024-03-08T07:27:43;7.22;;;4.40;;
53072;SDS011;38955;48.916;2.336;2024-03-08T07:29:45;11.98;;;6.30;;
53072;SDS011;38955;48.916;2.336;2024-03-08T07:31:47;9.48;;;4.43;;
53072;SDS011;38955;48.916;2.336;2024-03-08T07:33:58;8.02;;;5.65;;
53072;SDS011;38955;48.916;2.336;2024-03-08T07:36:01;7.47;;;5.50;;
53072;SDS011;38955;48.916;2.336;2024-03-08T07:38:03;9.73;;;5.47;;
53072;SDS011;38955;48.916;2.336;2024-03-08T07:40:07;13.13;;;4.13;;
53072;SDS011;38955;48.916;2.336;2024-03-08T07:42:10;9.23;;;4.65;;
53072;SDS011;38955;48.916;2.336;2024-03-08T07:44:13;6.40;;;3.22;;
53072;SDS011;38955;48.916;2.336;2024-03-08T07:46:15;11.32;;;3.63;;
53072;SDS011;38955;48.916;2.336;2024-03-08T07:48:20;6.40;;;3.55;;
53072;SDS011;38955;48.916;2.336;2024-03-08T07:50:24;8.13;;;5.43;;
53072;SDS011;38955;48.916;2.336;2024-03-08T07:52:26;6.72;;;4.03;;
53072;SDS011;38955;48.916;2.336;2024-03-08T07:54:28;12.80;;;5.55;;
53072;SDS011;38955;48.916;2.336;2024-03-08T07:56:30;14.65;;;5.10;;
53072;SDS011;38955;48.916;2.336;2024-03-08T07:58:33;6.40;;;4.00;;
53072;SDS011;38955;48.916;2.336;2024-03-08T08:00:36;9.55;;;5.30;;
53072;SDS011;38955;48.916;2.336;2024-03-08T08:02:38;10.55;;;6.75;;
53072;SDS011;38955;48.916;2.336;2024-03-08T08:04:41;9.52;;;4.07;;
53072;SDS011;38955;48.916;2.336;2024-03-08T08:06:45;6.72;;;4.25;;
53072;SDS011;38955;48.916;2.336;2024-03-08T08:08:47;8.77;;;4.35;;
53072;SDS011;38955;48.916;2.336;2024-03-08T08:10:49;8.02;;;5.43;;
53072;SDS011;38955;48.916;2.336;2024-03-08T08:12:52;7.40;;;4.05;;
53072;SDS011;38955;48.916;2.336;2024-03-08T08:14:54;7.80;;;5.07;;
53072;SDS011;38955;48.916;2.336;2024-03-08T08:16:56;7.43;;;3.20;;
53072;SDS011;38955;48.916;2.336;2024-03-08T08:18:59;5.93;;;3.10;;
53072;SDS011;38955;48.916;2.336;2024-03-08T08:21:02;8.85;;;4.28;;
53072;SDS011;38955;48.916;2.336;2024-03-08T08:23:05;8.23;;;4.05;;
53072;SDS011;38955;48.916;2.336;2024-03-08T08:25:07;6.07;;;3.38;;
53072;SDS011;38955;48.916;2.336;2024-03-08T08:27:10;7.30;;;3.35;;
53072;SDS011;38955;48.916;2.336;2024-03-08T08:29:13;7.25;;;4.55;;
53072;SDS011;38955;48.916;2.336;2024-03-08T08:31:16;6.07;;;3.83;;
53072;SDS011;38955;48.916;2.336;2024-03-08T08:33:18;12.60;;;4.28;;
53072;SDS011;38955;48.916;2.336;2024-03-08T08:35:20;6.97;;;2.63;;
53072;SDS011;38955;48.916;2.336;2024-03-08T08:37:23;5.88;;;3.40;;
53072;SDS011;38955;48.916;2.336;2024-03-08T08:39:28;7.47;;;4.35;;
53072;SDS011;38955;48.916;2.336;2024-03-08T08:41:30;9.07;;;4.32;;
53072;SDS011;38955;48.916;2.336;2024-03-08T08:43:33;6.65;;;4.00;;
53072;SDS011;38955;48.916;2.336;2024-03-08T08:45:36;7.63;;;5.28;;
53072;SDS011;38955;48.916;2.336;2024-03-08T08:47:40;12.00;;;4.30;;
53072;SDS011;38955;48.916;2.336;2024-03-08T08:49:44;3.53;;;3.03;;
53072;SDS011;38955;48.916;2.336;2024-03-08T08:51:51;11.80;;;4.80;;
53072;SDS011;38955;48.916;2.336;2024-03-08T08:53:57;7.18;;;4.32;;
53072;SDS011;38955;48.916;2.336;2024-03-08T08:56:00;5.82;;;2.60;;
53072;SDS011;38955;48.916;2.336;2024-03-08T08:58:03;9.38;;;3.30;;
53072;SDS011;38955;48.916;2.336;2024-03-08T09:00:05;7.13;;;4.13;;
53072;SDS011;38955;48.916;2.336;2024-03-08T09:02:09;4.82;;;2.58;;
53072;SDS011;38955;48.916;2.336;2024-03-08T09:04:14;6.85;;;4.05;;
53072;SDS011;38955;48.916;2.336;2024-03-08T09:06:16;5.95;;;4.32;;
53072;SDS011;38955;48.916;2.336;2024-03-08T09:08:19;10.48;;;5.55;;
53072;SDS011;38955;48.916;2.336;2024-03-08T09:10:22;7.30;;;3.63;;
53072;SDS011;38955;48.916;2.336;2024-03-08T09:12:31;9.77;;;4.97;;
53072;SDS011;38955;48.916;2.336;2024-03-08T09:14:34;5.60;;;3.13;;
53072;SDS011;38955;48.916;2.336;2024-03-08T09:16:36;4.30;;;3.42;;
53072;SDS011;38955;48.916;2.336;2024-03-08T09:18:38;6.65;;;4.40;;
53072;SDS011;38955;48.916;2.336;2024-03-08T09:20:40;10.23;;;3.60;;
53072;SDS011;38955;48.916;2.336;2024-03-08T09:22:43;6.90;;;3.28;;
53072;SDS011;38955;48.916;2.336;2024-03-08T09:24:45;7.38;;;3.90;;
53072;SDS011;38955;48.916;2.336;2024-03-08T09:26:48;11.77;;;4.82;;
53072;SDS011;38955;48.916;2.336;2024-03-08T09:28:53;9.18;;;4.32;;
53072;SDS011;38955;48.916;2.336;2024-03-08T09:30:59;4.00;;;2.63;;
53072;SDS011;38955;48.916;2.336;2024-03-08T09:33:05;7.65;;;3.13;;
53072;SDS011;38955;48.916;2.336;2024-03-08T09:35:08;9.70;;;4.82;;
53072;SDS011;38955;48.916;2.336;2024-03-08T09:37:11;6.00;;;2.60;;
53072;SDS011;38955;48.916;2.336;2024-03-08T09:39:23;3.53;;;2.15;;
53072;SDS011;38955;48.916;2.336;2024-03-08T09:41:28;6.85;;;2.83;;
53072;SDS011;38955;48.916;2.336;2024-03-08T09:43:32;9.60;;;3.55;;
53072;SDS011;38955;48.916;2.336;2024-03-08T09:45:36;7.72;;;3.85;;
53072;SDS011;38955;48.916;2.336;2024-03-08T09:47:42;3.38;;;2.58;;
53072;SDS011;38955;48.916;2.336;2024-03-08T09:49:45;5.78;;;2.55;;
53072;SDS011;38955;48.916;2.336;2024-03-08T09:51:47;4.70;;;3.13;;
53072;SDS011;38955;48.916;2.336;2024-03-08T09:53:54;11.10;;;3.45;;
53072;SDS011;38955;48.916;2.336;2024-03-08T09:55:56;7.57;;;2.65;;
53072;SDS011;38955;48.916;2.336;2024-03-08T09:57:58;8.40;;;2.78;;
53072;SDS011;38955;48.916;2.336;2024-03-08T10:00:32;6.45;;;3.38;;
53072;SDS011;38955;48.916;2.336;2024-03-08T10:02:36;2.58;;;1.67;;
53072;SDS011;38955;48.916;2.336;2024-03-08T10:04:39;4.85;;;2.63;;
53072;SDS011;38955;48.916;2.336;2024-03-08T10:06:44;6.15;;;2.97;;
53072;SDS011;38955;48.916;2.336;2024-03-08T10:08:48;2.50;;;2.15;;
53072;SDS011;38955;48.916;2.336;2024-03-08T10:10:53;4.85;;;2.15;;
53072;SDS011;38955;48.916;2.336;2024-03-08T10:12:55;5.38;;;2.85;;
53072;SDS011;38955;48.916;2.336;2024-03-08T10:14:58;6.93;;;2.88;;
53072;SDS011;38955;48.916;2.336;2024-03-08T10:17:00;3.63;;;2.85;;
53072;SDS011;38955;48.916;2.336;2024-03-08T10:19:04;7.68;;;4.25;;
53072;SDS011;38955;48.916;2.336;2024-03-08T10:21:07;3.90;;;1.70;;
53072;SDS011;38955;48.916;2.336;2024-03-08T10:23:11;3.28;;;2.20;;
53072;SDS011;38955;48.916;2.336;2024-03-08T10:25:13;4.53;;;1.92;;
53072;SDS011;38955;48.916;2.336;2024-03-08T10:27:16;4.30;;;1.88;;
53072;SDS011;38955;48.916;2.336;2024-03-08T10:29:18;2.53;;;1.50;;
53072;SDS011;38955;48.916;2.336;2024-03-08T10:31:21;3.22;;;1.67;;
53072;SDS011;38955;48.916;2.336;2024-03-08T10:33:23;4.90;;;2.10;;
53072;SDS011;38955;48.916;2.336;2024-03-08T10:35:28;3.42;;;1.50;;
53072;SDS011;38955;48.916;2.336;2024-03-08T10:37:30;6.45;;;1.58;;
53072;SDS011;38955;48.916;2.336;2024-03-08T10:39:35;4.00;;;2.08;;
53072;SDS011;38955;48.916;2.336;2024-03-08T10:41:38;5.38;;;2.33;;
53072;SDS011;38955;48.916;2.336;2024-03-08T10:43:52;2.42;;;1.58;;
53072;SDS011;38955;48.916;2.336;2024-03-08T10:46:13;3.08;;;2.17;;
53072;SDS011;38955;48.916;2.336;2024-03-08T10:48:29;7.03;;;2.50;;
53072;SDS011;38955;48.916;2.336;2024-03-08T10:50:41;2.85;;;1.77;;
53072;SDS011;38955;48.916;2.336;2024-03-08T10:52:48;2.17;;;1.48;;
53072;SDS011;38955;48.916;2.336;2024-03-08T10:54:52;2.35;;;1.30;;
53072;SDS011;38955;48.916;2.336;2024-03-08T10:56:57;2.22;;;1.63;;
53072;SDS011;38955;48.916;2.336;2024-03-08T10:59:01;3.20;;;1.20;;
53072;SDS011;38955;48.916;2.336;2024-03-08T11:01:05;1.50;;;0.90;;
53072;SDS011;38955;48.916;2.336;2024-03-08T11:03:09;1.88;;;1.77;;
53072;SDS011;38955;48.916;2.336;2024-03-08T11:05:47;4.25;;;2.00;;
53072;SDS011;38955;48.916;2.336;2024-03-08T11:07:50;6.53;;;1.85;;
53072;SDS011;38955;48.916;2.336;2024-03-08T11:09:53;2.03;;;1.25;;
53072;SDS011;38955;48.916;2.336;2024-03-08T11:16:47;3.70;;;1.83;;
53072;SDS011;38955;48.916;2.336;2024-03-08T11:18:49;2.90;;;1.17;;
53072;SDS011;38955;48.916;2.336;2024-03-08T11:20:56;3.25;;;2.53;;
53072;SDS011;38955;48.916;2.336;2024-03-08T11:23:00;1.27;;;1.17;;
53072;SDS011;38955;48.916;2.336;2024-03-08T11:25:09;2.55;;;1.10;;
53072;SDS011;38955;48.916;2.336;2024-03-08T11:27:31;1.83;;;1.15;;
53072;SDS011;38955;48.916;2.336;2024-03-08T11:31:40;1.65;;;1.00;;
53072;SDS011;38955;48.916;2.336;2024-03-08T11:33:43;2.55;;;0.98;;
53072;SDS011;38955;48.916;2.336;2024-03-08T11:35:49;2.25;;;1.55;;
53072;SDS011;38955;48.916;2.336;2024-03-08T11:37:52;1.33;;;0.98;;
53072;SDS011;38955;48.916;2.336;2024-03-08T11:39:55;1.38;;;0.90;;
53072;SDS011;38955;48.916;2.336;2024-03-08T11:42:02;2.47;;;1.80;;
53072;SDS011;38955;48.916;2.336;2024-03-08T11:44:05;1.77;;;0.88;;
53072;SDS011;38955;48.916;2.336;2024-03-08T11:46:08;2.45;;;1.67;;
53072;SDS011;38955;48.916;2.336;2024-03-08T11:48:11;2.17;;;1.35;;
53072;SDS011;38955;48.916;2.336;2024-03-08T11:50:15;3.28;;;1.35;;
53072;SDS011;38955;48.916;2.336;2024-03-08T11:52:20;1.90;;;1.52;;
53072;SDS011;38955;48.916;2.336;2024-03-08T11:54:23;3.50;;;1.80;;
53072;SDS011;38955;48.916;2.336;2024-03-08T11:56:26;1.00;;;0.90;;
53072;SDS011;38955;48.916;2.336;2024-03-08T11:58:28;2.92;;;0.90;;
53072;SDS011;38955;48.916;2.336;2024-03-08T12:00:30;3.83;;;0.95;;
53072;SDS011;38955;48.916;2.336;2024-03-08T12:02:39;3.38;;;1.52;;
53072;SDS011;38955;48.916;2.336;2024-03-08T12:04:44;3.63;;;2.45;;
53072;SDS011;38955;48.916;2.336;2024-03-08T12:06:47;1.15;;;0.98;;
53072;SDS011;38955;48.916;2.336;2024-03-08T12:08:49;2.13;;;1.08;;
53072;SDS011;38955;48.916;2.336;2024-03-08T12:10:54;3.45;;;0.90;;
53072;SDS011;38955;48.916;2.336;2024-03-08T12:13:01;0.80;;;0.77;;
53072;SDS011;38955;48.916;2.336;2024-03-08T12:15:05;2.35;;;0.88;;
53072;SDS011;38955;48.916;2.336;2024-03-08T12:17:09;3.13;;;1.02;;
53072;SDS011;38955;48.916;2.336;2024-03-08T12:19:15;2.88;;;0.82;;
53072;SDS011;38955;48.916;2.336;2024-03-08T12:21:17;2.80;;;0.98;;
53072;SDS011;38955;48.916;2.336;2024-03-08T12:23:22;1.40;;;0.80;;
53072;SDS011;38955;48.916;2.336;2024-03-08T12:25:26;2.42;;;0.93;;
53072;SDS011;38955;48.916;2.336;2024-03-08T12:27:30;1.55;;;1.13;;
53072;SDS011;38955;48.916;2.336;2024-03-08T12:29:32;3.00;;;1.45;;
53072;SDS011;38955;48.916;2.336;2024-03-08T12:31:34;4.30;;;1.55;;
53072;SDS011;38955;48.916;2.336;2024-03-08T12:33:37;3.83;;;1.40;;